Time;durP1;ratioP1;P1;durP2;ratioP2;P2;SDS_P1;SDS_P2;PMS_P1;PMS_P2;Temp;Humidity;BMP_temperature;BMP_pressure;BME280_temperature;BME280_humidity;BME280_pressure;Samples;Min_cycle;Max_cycle;Signal;HPM_P1;HPM_P2
2023/12/03 00:02:08;;;;;;;3.10;2.25;;;;;;;;;;6219826;23;20020;-82
2023/12/03 00:04:35;;;;;;;2.85;2.10;;;;;;;;;;6219558;23;20024;-82
2023/12/03 00:07:01;;;;;;;2.90;2.22;;;;;;;;;;6220266;23;20031;-82
2023/12/03 00:09:27;;;;;;;3.03;2.33;;;;;;;;;;6221324;23;20412;-82
2023/12/03 00:11:53;;;;;;;2.60;2.05;;;;;;;;;;6222433;23;20020;-82
2023/12/03 00:14:19;;;;;;;3.35;2.00;;;;;;;;;;6222284;23;20043;-82
2023/12/03 00:16:45;;;;;;;3.22;2.25;;;;;;;;;;6222627;23;20429;-82
2023/12/03 00:19:12;;;;;;;3.38;2.40;;;;;;;;;;6221754;23;20016;-82
2023/12/03 00:21:38;;;;;;;2.40;2.08;;;;;;;;;;6221029;23;20580;-82
2023/12/03 00:24:04;;;;;;;5.18;2.25;;;;;;;;;;6222104;23;20016;-82
2023/12/03 00:26:30;;;;;;;3.30;2.47;;;;;;;;;;6221858;23;20078;-82
2023/12/03 00:28:56;;;;;;;3.28;2.40;;;;;;;;;;6222476;23;20012;-82
2023/12/03 00:31:22;;;;;;;3.80;2.50;;;;;;;;;;6247725;23;20058;-82
2023/12/03 00:33:48;;;;;;;3.72;2.40;;;;;;;;;;6247458;23;20058;-82
2023/12/03 00:36:14;;;;;;;3.75;2.63;;;;;;;;;;6220936;23;20532;-82
2023/12/03 00:38:40;;;;;;;4.20;2.83;;;;;;;;;;6220658;23;20020;-82
2023/12/03 00:41:06;;;;;;;4.15;3.13;;;;;;;;;;6218556;23;20027;-82
2023/12/03 00:43:32;;;;;;;3.33;2.90;;;;;;;;;;6218851;23;20020;-82
2023/12/03 00:46:00;;;;;;;4.00;2.97;;;;;;;;;;6220469;23;20048;-82
2023/12/03 00:48:26;;;;;;;4.88;3.10;;;;;;;;;;6218492;23;20023;-82
2023/12/03 00:50:52;;;;;;;4.18;2.60;;;;;;;;;;6218791;23;20099;-82
2023/12/03 00:53:18;;;;;;;3.53;2.70;;;;;;;;;;6219359;23;20024;-82
2023/12/03 00:55:44;;;;;;;4.40;2.47;;;;;;;;;;6248815;23;20024;-82
2023/12/03 00:58:10;;;;;;;3.13;2.47;;;;;;;;;;6222249;23;20027;-82
2023/12/03 01:00:36;;;;;;;3.17;2.28;;;;;;;;;;6220958;23;20020;-82
2023/12/03 01:03:03;;;;;;;3.03;2.30;;;;;;;;;;6221764;23;20020;-82
2023/12/03 01:05:29;;;;;;;3.13;2.10;;;;;;;;;;6220891;23;20016;-82
2023/12/03 01:07:55;;;;;;;2.58;2.20;;;;;;;;;;6248664;23;20023;-81
2023/12/03 01:10:21;;;;;;;3.05;2.25;;;;;;;;;;6219331;23;20020;-82
2023/12/03 01:12:47;;;;;;;2.53;2.10;;;;;;;;;;6221231;23;20033;-82
2023/12/03 01:15:13;;;;;;;2.33;2.08;;;;;;;;;;6221125;23;20099;-82
2023/12/03 01:17:40;;;;;;;3.65;2.10;;;;;;;;;;6247553;23;20090;-82
2023/12/03 01:20:07;;;;;;;3.08;2.00;;;;;;;;;;6247955;23;20024;-82
2023/12/03 01:22:33;;;;;;;4.38;2.60;;;;;;;;;;6220248;23;20027;-82
2023/12/03 01:24:59;;;;;;;4.63;2.78;;;;;;;;;;6220949;23;20013;-82
2023/12/03 01:27:25;;;;;;;4.15;2.83;;;;;;;;;;6220789;23;20067;-82
2023/12/03 01:29:51;;;;;;;4.20;3.00;;;;;;;;;;6247079;23;20031;-82
2023/12/03 01:32:17;;;;;;;3.72;2.50;;;;;;;;;;6220912;23;20016;-82
2023/12/03 01:34:43;;;;;;;3.72;2.40;;;;;;;;;;6220572;23;20503;-82
2023/12/03 01:37:10;;;;;;;5.80;2.53;;;;;;;;;;6221500;23;20452;-82
2023/12/03 01:39:36;;;;;;;3.05;2.20;;;;;;;;;;6220563;23;20090;-82
2023/12/03 01:42:03;;;;;;;2.80;2.50;;;;;;;;;;6221138;23;20024;-82
2023/12/03 01:44:29;;;;;;;3.70;2.40;;;;;;;;;;6197798;23;20082;-82
2023/12/03 01:46:58;;;;;;;3.03;2.55;;;;;;;;;;6195021;23;20016;-82
2023/12/03 01:49:24;;;;;;;3.15;2.25;;;;;;;;;;6197567;23;20401;-82
2023/12/03 01:51:50;;;;;;;4.22;2.50;;;;;;;;;;6196617;23;20016;-82
2023/12/03 01:54:16;;;;;;;3.78;2.78;;;;;;;;;;6223135;23;20382;-82
2023/12/03 01:56:43;;;;;;;3.63;2.80;;;;;;;;;;6197680;23;20091;-82
2023/12/03 01:59:09;;;;;;;3.58;2.80;;;;;;;;;;6196741;23;20020;-82
2023/12/03 02:01:36;;;;;;;3.42;2.47;;;;;;;;;;6196795;23;20528;-82
2023/12/03 02:04:02;;;;;;;4.63;2.58;;;;;;;;;;6196432;23;20089;-82
2023/12/03 02:06:28;;;;;;;5.72;2.90;;;;;;;;;;6197242;23;20016;-82
2023/12/03 02:08:54;;;;;;;3.00;2.40;;;;;;;;;;6220277;23;20465;-82
2023/12/03 02:11:20;;;;;;;3.80;2.90;;;;;;;;;;6248838;23;20012;-82
2023/12/03 02:13:47;;;;;;;3.10;2.50;;;;;;;;;;6196150;23;20474;-82
2023/12/03 02:16:13;;;;;;;4.28;3.03;;;;;;;;;;6196720;23;20026;-82
2023/12/03 02:18:39;;;;;;;4.88;2.80;;;;;;;;;;6196772;23;20036;-82
2023/12/03 02:21:05;;;;;;;4.70;3.42;;;;;;;;;;6197910;23;20016;-82
2023/12/03 02:23:32;;;;;;;4.30;2.83;;;;;;;;;;6196980;23;20020;-82
2023/12/03 02:25:59;;;;;;;4.45;3.30;;;;;;;;;;6222333;23;20508;-82
2023/12/03 02:28:25;;;;;;;4.95;3.58;;;;;;;;;;6196463;23;20344;-82
2023/12/03 02:30:51;;;;;;;3.95;3.10;;;;;;;;;;6196372;23;20070;-82
2023/12/03 02:33:17;;;;;;;3.67;3.10;;;;;;;;;;6196289;23;20041;-82
2023/12/03 02:35:43;;;;;;;4.65;3.30;;;;;;;;;;6197539;23;20043;-82
2023/12/03 02:38:09;;;;;;;3.63;3.28;;;;;;;;;;6196654;23;20031;-82
2023/12/03 02:40:38;;;;;;;6.25;3.60;;;;;;;;;;6196840;23;20012;-82
2023/12/03 02:43:04;;;;;;;5.78;3.78;;;;;;;;;;6197623;23;20456;-82
2023/12/03 02:45:30;;;;;;;5.55;3.47;;;;;;;;;;6222246;23;20070;-82
2023/12/03 02:47:56;;;;;;;3.75;3.25;;;;;;;;;;6192606;23;20028;-82
2023/12/03 02:50:22;;;;;;;4.85;3.33;;;;;;;;;;6194355;23;20456;-81
2023/12/03 02:52:48;;;;;;;4.63;3.30;;;;;;;;;;6194019;23;20448;-82
2023/12/03 02:55:17;;;;;;;4.28;3.28;;;;;;;;;;6218586;23;20024;-82
2023/12/03 02:57:43;;;;;;;4.13;3.25;;;;;;;;;;6193827;23;20083;-82
2023/12/03 03:00:10;;;;;;;4.25;3.35;;;;;;;;;;6193144;23;20018;-82
2023/12/03 03:02:37;;;;;;;4.88;3.25;;;;;;;;;;6193055;23;20020;-82
2023/12/03 03:05:03;;;;;;;4.47;3.40;;;;;;;;;;6218650;23;20044;-82
2023/12/03 03:07:29;;;;;;;3.83;3.33;;;;;;;;;;6194339;23;20016;-82
2023/12/03 03:09:55;;;;;;;5.70;3.20;;;;;;;;;;6194009;23;20039;-82
2023/12/03 03:12:21;;;;;;;3.67;3.05;;;;;;;;;;6195617;23;20048;-82
2023/12/03 03:14:47;;;;;;;4.05;3.10;;;;;;;;;;6191898;23;20705;-82
2023/12/03 03:17:14;;;;;;;5.35;2.80;;;;;;;;;;6192982;23;20024;-82
2023/12/03 03:19:43;;;;;;;3.67;3.10;;;;;;;;;;6193194;23;20099;-81
2023/12/03 03:22:12;;;;;;;4.85;3.20;;;;;;;;;;6193629;23;20453;-82
2023/12/03 03:24:38;;;;;;;3.88;3.15;;;;;;;;;;6194454;23;20119;-81
2023/12/03 03:27:05;;;;;;;4.78;3.40;;;;;;;;;;6194703;23;20016;-81
2023/12/03 03:29:31;;;;;;;4.68;3.40;;;;;;;;;;6194038;23;20058;-81
2023/12/03 03:31:57;;;;;;;4.10;3.25;;;;;;;;;;6193539;23;20020;-82
2023/12/03 03:34:23;;;;;;;5.10;3.50;;;;;;;;;;6192661;23;20013;-81
2023/12/03 03:36:49;;;;;;;3.28;2.97;;;;;;;;;;6194300;23;20055;-81
2023/12/03 03:39:15;;;;;;;3.75;2.92;;;;;;;;;;6219610;23;20016;-81
2023/12/03 03:41:41;;;;;;;5.47;3.08;;;;;;;;;;6199493;23;20019;-81
2023/12/03 03:44:07;;;;;;;3.83;3.08;;;;;;;;;;6221024;23;20007;-81
2023/12/03 03:46:33;;;;;;;4.53;3.00;;;;;;;;;;6220887;23;20016;-81
2023/12/03 03:49:00;;;;;;;3.33;2.90;;;;;;;;;;6219626;23;20004;-81
2023/12/03 03:51:26;;;;;;;3.50;2.85;;;;;;;;;;6215218;23;20024;-81
2023/12/03 03:53:52;;;;;;;3.75;2.80;;;;;;;;;;6198188;23;20050;-82
2023/12/03 03:56:18;;;;;;;5.25;3.35;;;;;;;;;;6199329;23;20016;-81
2023/12/03 03:58:44;;;;;;;3.63;2.90;;;;;;;;;;6198862;23;20290;-82
2023/12/03 04:01:11;;;;;;;4.18;2.88;;;;;;;;;;6198252;23;20012;-82
2023/12/03 04:03:37;;;;;;;3.92;3.05;;;;;;;;;;6199513;23;20031;-82
2023/12/03 04:06:03;;;;;;;4.60;2.97;;;;;;;;;;6197551;23;20020;-82
2023/12/03 04:08:30;;;;;;;3.42;2.88;;;;;;;;;;6199183;23;20049;-81
2023/12/03 04:10:56;;;;;;;3.15;2.72;;;;;;;;;;6197316;23;20020;-82
2023/12/03 04:13:22;;;;;;;4.80;2.92;;;;;;;;;;6198752;23;20020;-82
2023/12/03 04:15:48;;;;;;;4.05;3.40;;;;;;;;;;6199300;23;20020;-81
2023/12/03 04:18:14;;;;;;;3.75;3.00;;;;;;;;;;6198160;23;20318;-82
2023/12/03 04:20:40;;;;;;;5.43;3.15;;;;;;;;;;6223018;23;20047;-82
2023/12/03 04:23:06;;;;;;;5.05;3.35;;;;;;;;;;6198831;23;20038;-81
2023/12/03 04:25:32;;;;;;;5.28;3.50;;;;;;;;;;6198292;23;20016;-81
2023/12/03 04:27:58;;;;;;;5.25;4.00;;;;;;;;;;6199056;23;20421;-82
2023/12/03 04:30:24;;;;;;;4.63;3.30;;;;;;;;;;6198086;23;20031;-81
2023/12/03 04:32:50;;;;;;;5.82;3.78;;;;;;;;;;6196576;23;20095;-81
2023/12/03 04:35:17;;;;;;;5.28;3.88;;;;;;;;;;6198054;23;20020;-81
2023/12/03 04:37:43;;;;;;;5.25;3.70;;;;;;;;;;6197965;23;20024;-81
2023/12/03 04:40:09;;;;;;;5.00;3.55;;;;;;;;;;6198578;23;20020;-81
2023/12/03 04:42:36;;;;;;;5.40;3.28;;;;;;;;;;6198952;23;20031;-81
2023/12/03 04:45:02;;;;;;;5.22;3.35;;;;;;;;;;6198094;23;20023;-81
2023/12/03 04:47:29;;;;;;;6.78;4.15;;;;;;;;;;6197525;23;20020;-81
2023/12/03 04:49:55;;;;;;;6.15;4.00;;;;;;;;;;6197992;23;20028;-81
2023/12/03 04:52:21;;;;;;;6.72;4.22;;;;;;;;;;6198255;23;20016;-81
2023/12/03 04:54:47;;;;;;;7.07;4.55;;;;;;;;;;6198748;23;20059;-81
2023/12/03 04:57:13;;;;;;;6.95;4.20;;;;;;;;;;6197655;23;20016;-81
2023/12/03 04:59:39;;;;;;;5.30;4.55;;;;;;;;;;6197947;23;20016;-81
2023/12/03 05:02:05;;;;;;;7.38;4.85;;;;;;;;;;6197571;23;20381;-81
2023/12/03 05:04:31;;;;;;;7.72;4.55;;;;;;;;;;6197786;23;20055;-81
2023/12/03 05:06:57;;;;;;;8.65;5.25;;;;;;;;;;6197612;23;20087;-81
2023/12/03 05:09:23;;;;;;;7.18;5.47;;;;;;;;;;6195396;23;20028;-81
2023/12/03 05:11:50;;;;;;;8.63;5.40;;;;;;;;;;6198695;23;20016;-81
2023/12/03 05:14:16;;;;;;;8.38;5.22;;;;;;;;;;6197376;23;20047;-81
2023/12/03 05:16:42;;;;;;;9.05;5.80;;;;;;;;;;6198681;23;20024;-81
2023/12/03 05:19:08;;;;;;;9.77;6.03;;;;;;;;;;6198135;23;20027;-81
2023/12/03 05:21:34;;;;;;;9.30;6.10;;;;;;;;;;6197421;23;20016;-81
2023/12/03 05:24:00;;;;;;;9.48;6.47;;;;;;;;;;6198244;23;20023;-82
2023/12/03 05:26:26;;;;;;;11.82;7.38;;;;;;;;;;6198669;23;20071;-81
2023/12/03 05:28:52;;;;;;;10.25;7.10;;;;;;;;;;6198165;23;20091;-81
2023/12/03 05:31:18;;;;;;;10.98;7.32;;;;;;;;;;6198164;23;20012;-81
2023/12/03 05:33:44;;;;;;;11.75;8.43;;;;;;;;;;6197794;23;20016;-82
2023/12/03 05:36:20;;;;;;;15.07;8.07;;;;;;;;;;6198497;23;20047;-81
2023/12/03 05:38:46;;;;;;;14.15;8.52;;;;;;;;;;6198695;23;20017;-81
2023/12/03 05:41:12;;;;;;;14.18;8.52;;;;;;;;;;6198664;23;20066;-81
2023/12/03 05:43:39;;;;;;;14.30;8.93;;;;;;;;;;6198541;23;20349;-81
2023/12/03 05:46:06;;;;;;;14.02;8.80;;;;;;;;;;6198486;23;20016;-81
2023/12/03 05:48:32;;;;;;;15.10;9.80;;;;;;;;;;6197006;23;20016;-81
2023/12/03 05:50:58;;;;;;;18.30;9.85;;;;;;;;;;6198289;23;20012;-81
2023/12/03 05:53:24;;;;;;;14.45;9.30;;;;;;;;;;6198490;23;20052;-81
2023/12/03 05:55:50;;;;;;;16.38;9.70;;;;;;;;;;6198440;23;20446;-82
2023/12/03 05:58:16;;;;;;;18.70;10.35;;;;;;;;;;6198159;23;20143;-82
2023/12/03 06:00:45;;;;;;;19.27;10.55;;;;;;;;;;6197072;23;20020;-82
2023/12/03 06:03:11;;;;;;;17.42;9.85;;;;;;;;;;6197937;23;20071;-82
2023/12/03 06:05:37;;;;;;;19.70;10.25;;;;;;;;;;6197618;23;20020;-82
2023/12/03 06:08:04;;;;;;;21.88;11.45;;;;;;;;;;6196850;23;20022;-82
2023/12/03 06:10:30;;;;;;;19.77;10.80;;;;;;;;;;6198095;23;20461;-81
2023/12/03 06:12:56;;;;;;;21.42;12.15;;;;;;;;;;6197954;23;20086;-82
2023/12/03 06:15:23;;;;;;;21.05;12.13;;;;;;;;;;6200172;23;20024;-82
2023/12/03 06:17:49;;;;;;;19.70;10.52;;;;;;;;;;6198965;23;20066;-82
2023/12/03 06:20:15;;;;;;;25.17;12.43;;;;;;;;;;6198367;23;20047;-81
2023/12/03 06:22:41;;;;;;;21.48;11.43;;;;;;;;;;6199069;23;20027;-82
2023/12/03 06:25:08;;;;;;;21.90;12.75;;;;;;;;;;6199475;23;20020;-82
2023/12/03 06:27:34;;;;;;;22.70;11.77;;;;;;;;;;6197412;23;20021;-82
2023/12/03 06:30:00;;;;;;;28.25;13.90;;;;;;;;;;6199779;23;20048;-82
2023/12/03 06:32:26;;;;;;;33.53;14.02;;;;;;;;;;6199619;23;20197;-82
2023/12/03 06:34:52;;;;;;;49.22;15.90;;;;;;;;;;6200262;23;20048;-81
2023/12/03 06:37:18;;;;;;;99.85;18.23;;;;;;;;;;6199565;23;20022;-82
2023/12/03 06:39:44;;;;;;;113.90;16.88;;;;;;;;;;6200159;23;20373;-82
2023/12/03 06:42:11;;;;;;;83.85;16.50;;;;;;;;;;6201457;23;20063;-82
2023/12/03 06:44:38;;;;;;;116.35;19.50;;;;;;;;;;6200143;23;20103;-82
2023/12/03 06:47:05;;;;;;;153.88;21.35;;;;;;;;;;6201702;23;20057;-82
2023/12/03 06:49:31;;;;;;;96.15;17.30;;;;;;;;;;6200407;23;20380;-82
2023/12/03 06:51:57;;;;;;;85.65;16.33;;;;;;;;;;6197522;23;20023;-82
2023/12/03 06:54:24;;;;;;;61.72;16.20;;;;;;;;;;6194166;23;20020;-82
2023/12/03 06:56:51;;;;;;;50.08;13.65;;;;;;;;;;6221487;23;20024;-83
2023/12/03 06:59:17;;;;;;;70.75;15.93;;;;;;;;;;6196836;23;20121;-82
2023/12/03 07:01:46;;;;;;;78.53;16.35;;;;;;;;;;6193466;23;20349;-83
2023/12/03 07:04:12;;;;;;;126.82;16.58;;;;;;;;;;6191419;23;20134;-83
2023/12/03 07:06:38;;;;;;;68.90;14.85;;;;;;;;;;6191027;23;20091;-83
2023/12/03 07:09:05;;;;;;;89.03;14.88;;;;;;;;;;6196617;23;20016;-82
2023/12/03 07:11:31;;;;;;;104.30;16.70;;;;;;;;;;6218961;23;20016;-82
2023/12/03 07:14:00;;;;;;;45.55;11.85;;;;;;;;;;6193292;23;20092;-83
2023/12/03 07:16:29;;;;;;;43.22;12.20;;;;;;;;;;6218591;23;20024;-84
2023/12/03 07:18:58;;;;;;;51.30;14.48;;;;;;;;;;6193817;23;20020;-84
2023/12/03 07:21:24;;;;;;;61.65;15.68;;;;;;;;;;6193307;23;20519;-83
2023/12/03 07:23:50;;;;;;;45.97;14.02;;;;;;;;;;6193714;23;20020;-84
2023/12/03 07:26:16;;;;;;;42.25;14.65;;;;;;;;;;6191460;23;20380;-83
2023/12/03 07:28:42;;;;;;;52.83;15.80;;;;;;;;;;6193668;23;20446;-84
2023/12/03 07:31:11;;;;;;;60.75;15.60;;;;;;;;;;6193774;23;20448;-85
2023/12/03 07:33:42;;;;;;;57.70;16.23;;;;;;;;;;6192691;23;20019;-84
2023/12/03 07:36:08;;;;;;;47.90;15.70;;;;;;;;;;6191282;23;20452;-84
2023/12/03 07:38:35;;;;;;;113.15;21.95;;;;;;;;;;6189915;23;20349;-84
2023/12/03 07:41:01;;;;;;;85.75;19.52;;;;;;;;;;6190603;23;20012;-84
2023/12/03 07:43:27;;;;;;;81.03;19.88;;;;;;;;;;6190243;23;20016;-84
2023/12/03 07:45:53;;;;;;;126.13;24.02;;;;;;;;;;6192001;23;20050;-84
2023/12/03 07:48:19;;;;;;;77.68;20.15;;;;;;;;;;6193111;23;20012;-85
2023/12/03 07:50:46;;;;;;;131.18;27.50;;;;;;;;;;6194085;23;20103;-83
2023/12/03 07:53:15;;;;;;;92.07;20.77;;;;;;;;;;6193288;23;20012;-85
2023/12/03 07:55:41;;;;;;;91.70;23.25;;;;;;;;;;6193299;23;20023;-85
2023/12/03 07:58:10;;;;;;;105.38;25.05;;;;;;;;;;6194404;23;20020;-83
2023/12/03 08:00:37;;;;;;;60.28;19.92;;;;;;;;;;6194736;23;20012;-83
2023/12/03 08:03:05;;;;;;;77.65;22.75;;;;;;;;;;6194470;23;20479;-84
2023/12/03 08:05:34;;;;;;;90.18;24.17;;;;;;;;;;6193965;23;20020;-88
2023/12/03 08:08:00;;;;;;;72.25;22.27;;;;;;;;;;6193574;23;20020;-83
2023/12/03 08:10:27;;;;;;;72.07;21.35;;;;;;;;;;6195277;23;20020;-83
2023/12/03 08:12:53;;;;;;;69.00;21.80;;;;;;;;;;6194641;23;20023;-83
2023/12/03 08:15:19;;;;;;;80.13;21.38;;;;;;;;;;6195489;23;20020;-83
2023/12/03 08:17:45;;;;;;;82.68;21.42;;;;;;;;;;6194297;23;20012;-83
2023/12/03 08:20:11;;;;;;;85.63;23.40;;;;;;;;;;6193424;23;20016;-83
2023/12/03 08:22:37;;;;;;;82.70;22.45;;;;;;;;;;6193431;23;20050;-83
2023/12/03 08:25:06;;;;;;;82.00;22.88;;;;;;;;;;6193601;23;20099;-82
2023/12/03 08:27:33;;;;;;;68.78;20.05;;;;;;;;;;6193074;23;20020;-83
2023/12/03 08:29:59;;;;;;;82.78;22.33;;;;;;;;;;6193789;23;20020;-82
2023/12/03 08:32:25;;;;;;;69.80;20.55;;;;;;;;;;6194404;23;20012;-84
2023/12/03 08:34:51;;;;;;;84.68;22.58;;;;;;;;;;6193751;23;20051;-84
2023/12/03 08:37:17;;;;;;;87.25;21.35;;;;;;;;;;6193886;23;20028;-83
2023/12/03 08:39:46;;;;;;;75.47;21.23;;;;;;;;;;6194008;23;20100;-83
2023/12/03 08:42:13;;;;;;;86.53;22.85;;;;;;;;;;6193868;23;20027;-83
2023/12/03 08:44:39;;;;;;;74.60;22.20;;;;;;;;;;6193095;23;20073;-83
2023/12/03 08:47:05;;;;;;;69.95;20.92;;;;;;;;;;6193338;23;20016;-83
2023/12/03 08:49:31;;;;;;;99.60;23.45;;;;;;;;;;6193291;23;20437;-83
2023/12/03 08:51:57;;;;;;;116.80;25.58;;;;;;;;;;6193901;23;20024;-83
2023/12/03 08:54:23;;;;;;;92.32;25.75;;;;;;;;;;6193968;23;20016;-83
2023/12/03 08:56:50;;;;;;;91.35;24.40;;;;;;;;;;6193623;23;20413;-83
2023/12/03 08:59:16;;;;;;;106.93;26.08;;;;;;;;;;6193304;23;20310;-83
2023/12/03 09:01:42;;;;;;;139.60;27.38;;;;;;;;;;6193102;23;20023;-83
2023/12/03 09:04:09;;;;;;;134.98;27.33;;;;;;;;;;6194404;23;20142;-83
2023/12/03 09:06:35;;;;;;;101.35;24.50;;;;;;;;;;6194064;23;20012;-83
2023/12/03 09:09:01;;;;;;;131.90;27.77;;;;;;;;;;6193770;23;20099;-83
2023/12/03 09:11:27;;;;;;;89.20;23.10;;;;;;;;;;6194034;23;20020;-83
2023/12/03 09:13:53;;;;;;;157.95;30.98;;;;;;;;;;6194038;23;20016;-83
2023/12/03 09:16:20;;;;;;;108.40;26.13;;;;;;;;;;6194858;23;20020;-83
2023/12/03 09:18:46;;;;;;;126.60;28.73;;;;;;;;;;6194305;23;20075;-83
2023/12/03 09:21:13;;;;;;;88.68;24.02;;;;;;;;;;6195702;23;20043;-83
2023/12/03 09:23:39;;;;;;;100.50;25.88;;;;;;;;;;6195734;23;20064;-83
2023/12/03 09:26:06;;;;;;;98.88;27.85;;;;;;;;;;6196373;23;20058;-82
2023/12/03 09:28:34;;;;;;;85.82;23.67;;;;;;;;;;6196792;23;20016;-82
2023/12/03 09:31:00;;;;;;;93.65;27.33;;;;;;;;;;6196162;23;20467;-82
2023/12/03 09:33:27;;;;;;;91.22;26.95;;;;;;;;;;6196971;23;20017;-82
2023/12/03 09:35:55;;;;;;;88.15;26.40;;;;;;;;;;6197308;23;20449;-82
2023/12/03 09:38:22;;;;;;;100.88;27.08;;;;;;;;;;6197226;23;20123;-81
2023/12/03 09:40:49;;;;;;;87.63;29.17;;;;;;;;;;6196862;23;20031;-82
2023/12/03 09:43:18;;;;;;;78.60;26.75;;;;;;;;;;6197047;23;20134;-82
2023/12/03 09:45:46;;;;;;;81.82;28.65;;;;;;;;;;6196385;23;20066;-82
2023/12/03 09:48:12;;;;;;;79.47;28.02;;;;;;;;;;6196237;23;20020;-82
2023/12/03 09:50:42;;;;;;;81.28;28.83;;;;;;;;;;6196705;23;20012;-82
2023/12/03 09:53:11;;;;;;;77.57;29.92;;;;;;;;;;6197082;23;20016;-82
2023/12/03 09:55:43;;;;;;;78.28;30.20;;;;;;;;;;6196261;23;20027;-82
2023/12/03 09:58:15;;;;;;;74.55;29.58;;;;;;;;;;6196053;23;20012;-82
2023/12/03 10:00:42;;;;;;;70.32;28.48;;;;;;;;;;6221335;23;20024;-82
2023/12/03 10:03:08;;;;;;;76.05;29.92;;;;;;;;;;6196941;23;20451;-82
2023/12/03 10:05:35;;;;;;;70.97;30.38;;;;;;;;;;6198419;23;20348;-82
2023/12/03 10:08:02;;;;;;;71.82;30.58;;;;;;;;;;6198191;23;20341;-81
2023/12/03 10:10:32;;;;;;;62.70;28.73;;;;;;;;;;6198595;23;20031;-82
2023/12/03 10:12:58;;;;;;;65.47;28.88;;;;;;;;;;6197629;22;20026;-82
2023/12/03 10:15:25;;;;;;;66.43;28.63;;;;;;;;;;6198153;23;20047;-82
2023/12/03 10:17:52;;;;;;;73.35;30.60;;;;;;;;;;6198630;23;20016;-82
2023/12/03 10:20:26;;;;;;;59.75;29.27;;;;;;;;;;6198952;23;20024;-82
2023/12/03 10:22:53;;;;;;;54.78;25.10;;;;;;;;;;6198751;23;20458;-82
2023/12/03 10:25:32;;;;;;;61.17;27.88;;;;;;;;;;6199388;23;20016;-82
2023/12/03 10:27:59;;;;;;;55.20;26.73;;;;;;;;;;6199269;23;20023;-82
2023/12/03 10:30:26;;;;;;;66.03;29.13;;;;;;;;;;6199134;23;20326;-82
2023/12/03 10:32:52;;;;;;;56.60;27.35;;;;;;;;;;6199370;23;20043;-82
2023/12/03 10:35:22;;;;;;;60.53;27.42;;;;;;;;;;6199635;23;20091;-83
2023/12/03 10:37:49;;;;;;;61.20;29.33;;;;;;;;;;6199362;23;20020;-82
2023/12/03 10:40:15;;;;;;;55.10;26.38;;;;;;;;;;6199120;23;20012;-82
2023/12/03 10:42:42;;;;;;;59.35;27.95;;;;;;;;;;6199389;23;20039;-82
2023/12/03 10:45:12;;;;;;;54.65;27.30;;;;;;;;;;6199111;23;20460;-82
2023/12/03 10:47:39;;;;;;;54.72;26.50;;;;;;;;;;6198369;23;20037;-82
2023/12/03 10:50:06;;;;;;;50.47;27.10;;;;;;;;;;6199163;23;20047;-82
2023/12/03 10:52:38;;;;;;;55.85;27.75;;;;;;;;;;6198272;23;20016;-83
2023/12/03 10:55:04;;;;;;;52.05;27.23;;;;;;;;;;6198403;23;20016;-82
2023/12/03 10:57:32;;;;;;;57.72;28.38;;;;;;;;;;6198176;23;20013;-83
2023/12/03 11:00:09;;;;;;;53.58;27.80;;;;;;;;;;6198259;23;20487;-82
2023/12/03 11:02:45;;;;;;;51.92;25.67;;;;;;;;;;6223950;23;20016;-82
2023/12/03 11:05:18;;;;;;;49.28;25.00;;;;;;;;;;6198959;23;20027;-83
2023/12/03 11:07:44;;;;;;;51.33;27.15;;;;;;;;;;6199000;23;20058;-82
2023/12/03 11:10:10;;;;;;;50.78;26.75;;;;;;;;;;6198028;23;20063;-82
2023/12/03 11:12:37;;;;;;;46.72;24.15;;;;;;;;;;6198932;23;20012;-83
2023/12/03 11:15:03;;;;;;;45.92;24.25;;;;;;;;;;6198208;23;20047;-82
2023/12/03 11:17:44;;;;;;;51.22;24.95;;;;;;;;;;6198703;23;20443;-83
2023/12/03 11:20:13;;;;;;;44.53;24.30;;;;;;;;;;6198648;23;20410;-82
2023/12/03 11:22:57;;;;;;;41.50;22.17;;;;;;;;;;6198631;23;20016;-82
2023/12/03 11:25:34;;;;;;;44.00;25.05;;;;;;;;;;6198141;23;20016;-83
2023/12/03 11:28:00;;;;;;;45.88;24.67;;;;;;;;;;6198299;23;20024;-82
2023/12/03 11:30:39;;;;;;;47.47;27.33;;;;;;;;;;6199694;23;20012;-82
2023/12/03 11:33:15;;;;;;;43.65;24.30;;;;;;;;;;6199563;23;20527;-83
2023/12/03 11:35:42;;;;;;;48.72;26.10;;;;;;;;;;6200059;23;20052;-82
2023/12/03 11:38:09;;;;;;;42.88;23.67;;;;;;;;;;6199836;23;20027;-83
2023/12/03 11:40:35;;;;;;;42.17;23.60;;;;;;;;;;6200361;23;20139;-82
2023/12/03 11:43:01;;;;;;;45.00;24.88;;;;;;;;;;6199183;23;20078;-82
2023/12/03 11:45:29;;;;;;;38.30;21.70;;;;;;;;;;6200500;23;20020;-82
2023/12/03 11:48:09;;;;;;;38.53;21.63;;;;;;;;;;6200062;23;20020;-82
2023/12/03 11:50:39;;;;;;;40.78;23.17;;;;;;;;;;6251904;23;20043;-83
2023/12/03 11:53:09;;;;;;;40.25;22.40;;;;;;;;;;6199399;23;20039;-83
2023/12/03 11:55:42;;;;;;;41.33;21.90;;;;;;;;;;6198855;23;20023;-83
2023/12/03 11:58:08;;;;;;;37.83;21.77;;;;;;;;;;6197792;23;20034;-83
2023/12/03 12:00:35;;;;;;;38.63;20.83;;;;;;;;;;6197818;23;20016;-82
2023/12/03 12:03:02;;;;;;;36.85;20.25;;;;;;;;;;6198502;23;20167;-82
2023/12/03 12:05:28;;;;;;;43.70;21.20;;;;;;;;;;6198253;23;20449;-82
2023/12/03 12:08:02;;;;;;;40.80;21.27;;;;;;;;;;6197558;23;20023;-82
2023/12/03 12:10:33;;;;;;;36.88;19.27;;;;;;;;;;6198159;23;20441;-82
2023/12/03 12:13:00;;;;;;;36.10;19.40;;;;;;;;;;6197813;23;20012;-83
2023/12/03 12:15:26;;;;;;;38.28;21.38;;;;;;;;;;6197914;23;20022;-82
2023/12/03 12:17:53;;;;;;;38.83;19.80;;;;;;;;;;6196645;23;20016;-82
2023/12/03 12:20:25;;;;;;;37.72;19.88;;;;;;;;;;6197327;23;20016;-85
2023/12/03 12:22:52;;;;;;;39.85;20.60;;;;;;;;;;6196504;23;20016;-83
2023/12/03 12:25:19;;;;;;;41.70;22.20;;;;;;;;;;6197351;23;20098;-82
2023/12/03 12:27:45;;;;;;;36.70;19.10;;;;;;;;;;6196350;23;20023;-83
2023/12/03 12:30:16;;;;;;;36.60;20.10;;;;;;;;;;6196892;23;20047;-83
2023/12/03 12:32:42;;;;;;;39.80;20.48;;;;;;;;;;6197377;23;20044;-83
2023/12/03 12:35:12;;;;;;;39.03;20.05;;;;;;;;;;6198483;23;20062;-83
2023/12/03 12:37:39;;;;;;;36.72;20.70;;;;;;;;;;6222801;23;20020;-83
2023/12/03 12:40:11;;;;;;;36.50;19.00;;;;;;;;;;6196107;23;20020;-83
2023/12/03 12:42:42;;;;;;;31.90;18.73;;;;;;;;;;6197620;23;20445;-83
2023/12/03 12:45:27;;;;;;;36.45;20.08;;;;;;;;;;6197691;23;20066;-83
2023/12/03 12:47:53;;;;;;;34.95;17.80;;;;;;;;;;6197133;23;20016;-83
2023/12/03 12:50:19;;;;;;;32.75;17.67;;;;;;;;;;6196743;23;20015;-84
2023/12/03 12:52:55;;;;;;;35.45;19.35;;;;;;;;;;6194660;23;20491;-86
2023/12/03 12:55:27;;;;;;;35.47;18.75;;;;;;;;;;6194804;23;20043;-83
2023/12/03 12:57:54;;;;;;;38.20;19.42;;;;;;;;;;6195773;23;20032;-89
2023/12/03 13:00:20;;;;;;;33.58;19.10;;;;;;;;;;6194609;23;20445;-84
2023/12/03 13:02:46;;;;;;;35.83;18.55;;;;;;;;;;6195426;23;20020;-83
2023/12/03 13:05:13;;;;;;;33.50;17.80;;;;;;;;;;6220310;23;20115;-83
2023/12/03 13:07:39;;;;;;;31.95;17.55;;;;;;;;;;6220830;23;20302;-83
2023/12/03 13:10:06;;;;;;;30.65;17.73;;;;;;;;;;6221057;23;20012;-83
2023/12/03 13:12:32;;;;;;;38.63;18.42;;;;;;;;;;6196483;23;20016;-83
2023/12/03 13:14:58;;;;;;;35.05;18.02;;;;;;;;;;6248145;23;20016;-83
2023/12/03 13:17:26;;;;;;;37.03;19.83;;;;;;;;;;6196474;23;20095;-83
2023/12/03 13:19:52;;;;;;;35.22;18.63;;;;;;;;;;6220803;23;20048;-83
2023/12/03 13:22:18;;;;;;;33.50;18.35;;;;;;;;;;6196438;23;20020;-83
2023/12/03 13:24:46;;;;;;;34.40;18.20;;;;;;;;;;6221360;23;20028;-83
2023/12/03 13:27:12;;;;;;;32.83;18.02;;;;;;;;;;6196284;23;20020;-83
2023/12/03 13:29:39;;;;;;;37.63;19.55;;;;;;;;;;6196183;23;20024;-83
2023/12/03 13:32:05;;;;;;;36.28;19.05;;;;;;;;;;6220857;23;20016;-84
2023/12/03 13:34:31;;;;;;;34.67;18.20;;;;;;;;;;6248277;23;20013;-83
2023/12/03 13:36:57;;;;;;;34.33;18.20;;;;;;;;;;6220687;23;20012;-83
2023/12/03 13:39:23;;;;;;;32.25;17.90;;;;;;;;;;6249747;23;20020;-83
2023/12/03 13:41:49;;;;;;;38.00;18.65;;;;;;;;;;6197085;23;20016;-84
2023/12/03 13:44:16;;;;;;;38.05;17.90;;;;;;;;;;6247469;23;20097;-84
2023/12/03 13:46:42;;;;;;;34.60;19.90;;;;;;;;;;6220550;23;20024;-84
2023/12/03 13:49:08;;;;;;;33.33;18.55;;;;;;;;;;6194628;23;20037;-84
2023/12/03 13:51:34;;;;;;;38.95;20.17;;;;;;;;;;6195649;23;20024;-84
2023/12/03 13:54:00;;;;;;;38.97;20.20;;;;;;;;;;6220602;23;20087;-83
2023/12/03 13:56:26;;;;;;;36.55;19.92;;;;;;;;;;6220184;23;20447;-83
2023/12/03 13:58:52;;;;;;;36.08;18.90;;;;;;;;;;6220330;23;20022;-83
2023/12/03 14:01:18;;;;;;;33.45;19.80;;;;;;;;;;6220638;23;20024;-83
2023/12/03 14:03:44;;;;;;;40.13;19.40;;;;;;;;;;6195645;23;20457;-83
2023/12/03 14:06:11;;;;;;;32.20;18.30;;;;;;;;;;6248433;23;20078;-83
2023/12/03 14:08:37;;;;;;;38.80;19.70;;;;;;;;;;6196698;23;20111;-84
2023/12/03 14:11:06;;;;;;;39.80;20.02;;;;;;;;;;6195528;23;20341;-83
2023/12/03 14:13:32;;;;;;;37.67;19.95;;;;;;;;;;6195071;23;20016;-83
2023/12/03 14:15:58;;;;;;;39.30;20.25;;;;;;;;;;6221248;23;20028;-83
2023/12/03 14:18:24;;;;;;;39.22;19.98;;;;;;;;;;6247274;23;20020;-83
2023/12/03 14:20:50;;;;;;;31.88;19.27;;;;;;;;;;6220508;23;20120;-83
2023/12/03 14:23:16;;;;;;;37.35;19.20;;;;;;;;;;6220370;23;20058;-83
2023/12/03 14:25:42;;;;;;;31.38;17.60;;;;;;;;;;6220316;23;20488;-83